Time;durP1;ratioP1;P1;durP2;ratioP2;P2;SDS_P1;SDS_P2;PMS_P1;PMS_P2;Temp;Humidity;BMP_temperature;BMP_pressure;BME280_temperature;BME280_humidity;BME280_pressure;Samples;Min_cycle;Max_cycle;Signal;HPM_P1;HPM_P2
2021/06/20 00:01:48;;;;;;;3.78;2.00;;;22.90;99.90;;;;;;6242495;23;20020;-85
2021/06/20 00:04:16;;;;;;;4.70;1.88;;;22.90;99.70;;;;;;6242582;23;20462;-85
2021/06/20 00:06:48;;;;;;;4.28;1.90;;;22.70;99.20;;;;;;6242843;23;20027;-85
2021/06/20 00:09:16;;;;;;;3.15;1.92;;;22.70;99.80;;;;;;6243551;23;20028;-82
2021/06/20 00:11:47;;;;;;;3.63;1.67;;;22.70;99.80;;;;;;6242554;23;20032;-85
2021/06/20 00:14:15;;;;;;;4.55;1.95;;;22.80;99.90;;;;;;6240857;23;20012;-82
2021/06/20 00:16:42;;;;;;;5.13;2.08;;;23.60;99.90;;;;;;6243106;23;20078;-83
2021/06/20 00:19:09;;;;;;;3.70;1.73;;;22.80;99.90;;;;;;6217469;23;20347;-86
2021/06/20 00:21:36;;;;;;;2.40;1.55;;;22.80;99.90;;;;;;6241563;23;20031;-85
2021/06/20 00:24:04;;;;;;;2.90;1.85;;;22.80;99.90;;;;;;6243604;23;20066;-85
2021/06/20 00:26:32;;;;;;;3.28;1.65;;;22.80;99.60;;;;;;6217334;23;20078;-82
2021/06/20 00:29:00;;;;;;;4.18;1.70;;;22.80;99.40;;;;;;6241946;23;20020;-83
2021/06/20 00:31:27;;;;;;;3.08;1.55;;;22.80;98.60;;;;;;6240688;23;20020;-83
2021/06/20 00:33:54;;;;;;;4.57;1.60;;;22.80;98.60;;;;;;6217670;23;20456;-81
2021/06/20 00:36:21;;;;;;;3.80;1.73;;;22.80;99.10;;;;;;6242302;23;20024;-85
2021/06/20 00:38:47;;;;;;;2.72;1.77;;;22.80;99.00;;;;;;6217156;23;20082;-85
2021/06/20 00:41:14;;;;;;;3.28;1.73;;;22.80;98.80;;;;;;6215773;23;20028;-82
2021/06/20 00:43:41;;;;;;;2.83;1.73;;;22.80;98.50;;;;;;6242278;23;20020;-84
2021/06/20 00:46:10;;;;;;;3.40;1.70;;;22.80;98.70;;;;;;6215470;23;20019;-85
2021/06/20 00:48:37;;;;;;;5.13;1.75;;;22.80;98.30;;;;;;6217636;23;20078;-85
2021/06/20 00:51:04;;;;;;;1.67;1.27;;;22.80;98.90;;;;;;6240770;23;20023;-83
2021/06/20 00:53:31;;;;;;;3.83;1.55;;;23.70;98.70;;;;;;6239662;23;20024;-85
2021/06/20 00:55:58;;;;;;;2.55;1.30;;;22.80;98.70;;;;;;6240461;23;20016;-83
2021/06/20 00:58:26;;;;;;;3.05;1.45;;;22.80;99.00;;;;;;6240371;23;20024;-85
2021/06/20 01:00:53;;;;;;;4.50;1.90;;;22.80;99.10;;;;;;6241222;23;20086;-85
2021/06/20 01:03:21;;;;;;;4.38;1.90;;;22.90;99.00;;;;;;6190968;23;20028;-86
2021/06/20 01:05:48;;;;;;;5.70;2.03;;;22.80;99.20;;;;;;6240507;23;20102;-83
2021/06/20 01:08:15;;;;;;;3.58;2.20;;;23.00;99.90;;;;;;6240786;23;20473;-83
2021/06/20 01:10:42;;;;;;;3.15;2.00;;;22.80;99.90;;;;;;6251620;23;20484;-84
2021/06/20 01:13:11;;;;;;;3.05;1.90;;;22.90;99.90;;;;;;6216020;23;20016;-83
2021/06/20 01:15:39;;;;;;;3.70;2.10;;;22.90;99.90;;;;;;6239123;23;20442;-86
2021/06/20 01:18:08;;;;;;;4.77;2.07;;;22.80;99.90;;;;;;6214969;23;20095;-85
2021/06/20 01:20:37;;;;;;;3.95;1.90;;;22.80;99.90;;;;;;6241547;23;20024;-84
2021/06/20 01:23:05;;;;;;;2.72;1.95;;;22.70;99.90;;;;;;6239656;23;20024;-83
2021/06/20 01:25:35;;;;;;;3.87;2.20;;;22.70;99.90;;;;;;6238696;23;20308;-86
2021/06/20 01:28:06;;;;;;;3.35;2.10;;;22.80;99.90;;;;;;6243293;23;20387;-85
2021/06/20 01:30:37;;;;;;;3.67;2.17;;;22.70;99.90;;;;;;6213374;23;20032;-81
2021/06/20 01:33:06;;;;;;;4.32;2.33;;;22.70;99.90;;;;;;6241604;23;20020;-85
2021/06/20 01:35:33;;;;;;;3.88;2.25;;;22.70;99.90;;;;;;6242471;23;20024;-85
2021/06/20 01:38:02;;;;;;;6.05;2.38;;;22.60;99.90;;;;;;6225567;23;20454;-86
2021/06/20 01:40:30;;;;;;;5.15;2.60;;;23.10;99.90;;;;;;6241864;23;20023;-85
2021/06/20 01:45:26;;;;;;;5.93;1.77;;;22.40;99.90;;;;;;6213171;23;20021;-83
2021/06/20 01:47:56;;;;;;;8.40;1.83;;;22.10;99.90;;;;;;6234594;23;20020;-84
2021/06/20 01:50:23;;;;;;;10.82;2.40;;;21.80;99.90;;;;;;6232757;23;20091;-84
2021/06/20 01:52:59;;;;;;;11.73;2.63;;;21.60;99.90;;;;;;6242695;22;20082;-83
2021/06/20 01:55:26;;;;;;;9.05;2.45;;;21.30;99.90;;;;;;6239953;23;20020;-83
2021/06/20 01:57:54;;;;;;;8.40;2.55;;;21.20;99.90;;;;;;6239444;23;20336;-84
2021/06/20 02:00:21;;;;;;;7.80;1.98;;;21.10;99.90;;;;;;6240226;23;20024;-83
2021/06/20 02:02:48;;;;;;;8.85;1.90;;;20.90;99.90;;;;;;6237724;22;20016;-83
2021/06/20 02:05:15;;;;;;;9.50;2.20;;;20.70;99.90;;;;;;6240621;23;20016;-84
2021/06/20 02:07:43;;;;;;;10.23;2.08;;;20.70;99.90;;;;;;6241742;23;20020;-83
2021/06/20 02:10:12;;;;;;;5.82;2.08;;;20.60;99.90;;;;;;6240357;23;20082;-84
2021/06/20 02:12:39;;;;;;;6.82;2.15;;;20.50;99.90;;;;;;6242545;22;20012;-84
2021/06/20 02:15:10;;;;;;;7.57;1.85;;;20.50;99.90;;;;;;6243098;23;20087;-84
2021/06/20 02:17:38;;;;;;;7.13;1.90;;;20.40;99.90;;;;;;6242464;23;20062;-84
2021/06/20 02:20:08;;;;;;;5.78;1.70;;;20.30;99.90;;;;;;6269168;22;20039;-85
2021/06/20 02:22:38;;;;;;;9.20;1.80;;;20.20;99.90;;;;;;6243666;22;20019;-84
2021/06/20 02:25:06;;;;;;;8.45;2.28;;;20.30;99.90;;;;;;6240365;23;20019;-84
2021/06/20 02:27:32;;;;;;;4.82;1.52;;;20.10;99.90;;;;;;6243354;23;20388;-85
2021/06/20 02:29:59;;;;;;;6.78;1.48;;;20.10;99.90;;;;;;6251609;23;20380;-85
2021/06/20 02:32:27;;;;;;;4.32;1.35;;;20.20;99.90;;;;;;6252692;22;20385;-84
2021/06/20 02:34:55;;;;;;;6.63;1.65;;;20.10;99.90;;;;;;6244525;23;20020;-83
2021/06/20 02:37:23;;;;;;;7.50;1.55;;;20.10;99.90;;;;;;6253091;23;20020;-83
2021/06/20 02:39:50;;;;;;;5.07;1.40;;;20.00;99.90;;;;;;6244409;23;20466;-83
2021/06/20 02:42:18;;;;;;;7.30;1.33;;;20.00;99.90;;;;;;6242576;22;20069;-83
2021/06/20 02:44:45;;;;;;;6.20;1.55;;;20.00;99.90;;;;;;6243191;23;20020;-84
2021/06/20 02:47:13;;;;;;;3.00;1.10;;;19.80;99.90;;;;;;6244453;23;20062;-83
2021/06/20 02:49:42;;;;;;;4.80;1.48;;;19.80;99.90;;;;;;6242421;23;20020;-83
2021/06/20 02:52:11;;;;;;;6.25;1.20;;;19.90;99.90;;;;;;6242125;23;20331;-83
2021/06/20 02:54:49;;;;;;;3.42;1.42;;;20.00;99.90;;;;;;6241216;23;20070;-84
2021/06/20 02:57:17;;;;;;;5.68;1.38;;;20.00;99.90;;;;;;6218546;23;20012;-83
2021/06/20 02:59:44;;;;;;;5.40;1.58;;;20.10;99.90;;;;;;6243774;23;20023;-83
2021/06/20 03:02:11;;;;;;;6.75;1.45;;;20.20;99.90;;;;;;6217487;23;20024;-83
2021/06/20 03:04:38;;;;;;;6.70;1.60;;;20.20;99.90;;;;;;6241055;23;20066;-84
2021/06/20 03:07:06;;;;;;;8.07;1.70;;;20.20;99.90;;;;;;6251355;23;20068;-83
2021/06/20 03:09:35;;;;;;;4.00;1.42;;;20.10;99.90;;;;;;6241258;23;20012;-84
2021/06/20 03:12:02;;;;;;;4.18;1.52;;;20.00;99.90;;;;;;6255469;23;20074;-83
2021/06/20 03:14:29;;;;;;;5.97;1.73;;;20.00;99.90;;;;;;6240481;23;20023;-84
2021/06/20 03:16:56;;;;;;;5.07;1.27;;;20.10;99.90;;;;;;6242164;23;20020;-84
2021/06/20 03:19:23;;;;;;;6.85;1.52;;;20.20;99.90;;;;;;6241005;23;20024;-84
2021/06/20 03:21:54;;;;;;;6.35;1.60;;;20.10;99.90;;;;;;6240712;23;20049;-83
2021/06/20 03:24:23;;;;;;;5.18;1.75;;;20.00;99.90;;;;;;6240622;23;20016;-84
2021/06/20 03:26:49;;;;;;;5.65;1.50;;;19.80;99.90;;;;;;6243365;23;20016;-83
2021/06/20 03:29:16;;;;;;;10.43;1.90;;;19.70;99.90;;;;;;6215402;23;20400;-84
2021/06/20 03:31:43;;;;;;;8.10;1.63;;;19.60;99.90;;;;;;6217600;23;20027;-83
2021/06/20 03:34:10;;;;;;;5.63;1.90;;;19.60;99.90;;;;;;6241199;23;20027;-84
2021/06/20 03:36:37;;;;;;;9.77;2.03;;;19.60;99.90;;;;;;6215674;23;20521;-84
2021/06/20 03:39:04;;;;;;;4.22;1.35;;;19.80;99.90;;;;;;6242384;23;20028;-84
2021/06/20 03:41:33;;;;;;;8.43;1.73;;;19.80;99.90;;;;;;6241777;23;20346;-84
2021/06/20 03:44:00;;;;;;;5.40;1.98;;;19.60;99.90;;;;;;6241499;23;20020;-83
2021/06/20 03:46:27;;;;;;;6.25;1.50;;;19.50;99.90;;;;;;6217903;23;20828;-84
2021/06/20 03:48:54;;;;;;;7.80;1.55;;;19.40;99.90;;;;;;6216965;23;20012;-84
2021/06/20 03:51:21;;;;;;;7.93;1.88;;;19.40;99.90;;;;;;6216236;23;20035;-83
2021/06/20 03:53:48;;;;;;;6.78;1.50;;;19.40;99.90;;;;;;6252610;23;20016;-84
2021/06/20 03:56:15;;;;;;;6.63;1.67;;;19.50;99.90;;;;;;6218280;23;20024;-83
2021/06/20 03:58:43;;;;;;;5.72;1.25;;;19.60;99.90;;;;;;6241797;23;20074;-83
2021/06/20 04:01:10;;;;;;;10.82;1.90;;;19.70;99.90;;;;;;6241796;23;20020;-83
2021/06/20 04:03:37;;;;;;;5.40;1.20;;;19.60;99.90;;;;;;6226381;23;20058;-84
2021/06/20 04:06:04;;;;;;;7.85;1.42;;;19.50;99.90;;;;;;6226582;23;20322;-83
2021/06/20 04:08:31;;;;;;;3.80;1.65;;;19.50;99.90;;;;;;6217583;23;20159;-84
2021/06/20 04:11:00;;;;;;;;;;;19.40;99.90;;;;;;6243249;23;20016;-83
2021/06/20 04:13:27;;;;;;;5.32;1.48;;;19.40;99.90;;;;;;6227872;23;19916;-84
2021/06/20 04:15:55;;;;;;;4.40;1.50;;;19.30;99.90;;;;;;6240928;23;20066;-84
2021/06/20 04:18:22;;;;;;;5.28;1.65;;;19.30;99.90;;;;;;6242685;23;20012;-83
2021/06/20 04:20:49;;;;;;;7.20;1.65;;;19.30;99.90;;;;;;6243441;23;20295;-84
2021/06/20 04:23:16;;;;;;;7.88;1.67;;;19.30;99.90;;;;;;6243698;23;20024;-82
2021/06/20 04:25:43;;;;;;;4.90;1.42;;;19.20;99.90;;;;;;6240585;23;20434;-82
2021/06/20 04:28:10;;;;;;;7.78;2.10;;;19.10;99.90;;;;;;6218186;23;20047;-83
2021/06/20 04:30:37;;;;;;;3.08;1.33;;;19.20;99.90;;;;;;6213047;23;20400;-83
2021/06/20 04:33:05;;;;;;;5.63;1.60;;;19.30;99.90;;;;;;6216899;23;20016;-83
2021/06/20 04:35:32;;;;;;;6.90;1.60;;;19.50;99.90;;;;;;6217141;23;20083;-84
2021/06/20 04:37:59;;;;;;;6.00;1.83;;;19.50;99.90;;;;;;6215805;23;20020;-83
2021/06/20 04:40:26;;;;;;;7.45;1.38;;;19.60;99.90;;;;;;6215912;23;20016;-83
2021/06/20 04:42:58;;;;;;;3.00;1.40;;;19.60;99.90;;;;;;6216805;23;20445;-82
2021/06/20 04:45:25;;;;;;;3.92;1.42;;;19.70;99.90;;;;;;6241250;23;20028;-83
2021/06/20 04:47:53;;;;;;;4.53;1.50;;;19.70;99.90;;;;;;6217611;23;20016;-83
2021/06/20 04:50:21;;;;;;;5.20;1.45;;;19.80;99.90;;;;;;6241845;23;20082;-83
2021/06/20 04:52:48;;;;;;;7.50;1.45;;;19.80;99.90;;;;;;6240807;23;20019;-82
2021/06/20 04:55:15;;;;;;;4.55;1.60;;;19.90;99.90;;;;;;6217149;23;20074;-83
2021/06/20 04:57:42;;;;;;;4.93;1.58;;;19.90;99.90;;;;;;6218047;23;20058;-83
2021/06/20 05:00:10;;;;;;;6.22;1.33;;;20.00;99.90;;;;;;6215923;23;20020;-83
2021/06/20 05:02:37;;;;;;;5.40;1.52;;;19.90;99.90;;;;;;6242547;23;20086;-83
2021/06/20 05:05:06;;;;;;;5.30;1.80;;;19.80;99.90;;;;;;6216475;23;20024;-83
2021/06/20 05:07:34;;;;;;;4.43;1.65;;;19.80;99.90;;;;;;6240728;23;20020;-84
2021/06/20 05:10:06;;;;;;;6.60;2.08;;;19.80;99.90;;;;;;6241449;23;20016;-83
2021/06/20 05:12:33;;;;;;;8.70;2.38;;;19.80;99.90;;;;;;6242187;23;20016;-83
2021/06/20 05:15:00;;;;;;;5.70;1.92;;;19.80;99.90;;;;;;6214906;23;20023;-83
2021/06/20 05:17:27;;;;;;;8.85;1.85;;;19.90;99.90;;;;;;6239829;23;20012;-83
2021/06/20 05:19:54;;;;;;;8.63;1.90;;;20.00;99.90;;;;;;6216192;23;20066;-83
2021/06/20 05:22:20;;;;;;;4.53;1.85;;;20.10;99.90;;;;;;6217048;23;20082;-82
2021/06/20 05:24:49;;;;;;;5.13;1.80;;;20.20;99.90;;;;;;6242749;23;20023;-82
2021/06/20 05:27:16;;;;;;;8.00;1.95;;;20.30;99.90;;;;;;6215124;23;20016;-83
2021/06/20 05:29:43;;;;;;;7.53;1.98;;;20.30;99.90;;;;;;6240789;23;20015;-84
2021/06/20 05:32:10;;;;;;;4.80;2.10;;;20.50;99.90;;;;;;6239245;23;20039;-82
2021/06/20 05:34:37;;;;;;;5.85;1.70;;;20.50;99.90;;;;;;6242596;23;20450;-83
2021/06/20 05:37:04;;;;;;;5.80;2.10;;;20.60;99.90;;;;;;6216487;23;20023;-83
2021/06/20 05:39:31;;;;;;;6.65;2.10;;;20.60;99.90;;;;;;6226171;23;20020;-82
2021/06/20 05:41:59;;;;;;;7.80;2.58;;;20.70;99.90;;;;;;6241694;23;20012;-83
2021/06/20 05:44:26;;;;;;;6.43;2.08;;;20.80;99.90;;;;;;6226209;23;20374;-82
2021/06/20 05:46:53;;;;;;;8.88;2.28;;;20.80;99.90;;;;;;6239943;23;20062;-83
2021/06/20 05:49:20;;;;;;;4.72;2.00;;;20.90;99.90;;;;;;6237867;23;20024;-83
2021/06/20 05:51:47;;;;;;;8.65;2.70;;;20.90;99.90;;;;;;6239061;23;20043;-83
2021/06/20 05:54:14;;;;;;;11.30;2.60;;;20.80;99.90;;;;;;6214872;23;20449;-83
2021/06/20 05:56:40;;;;;;;8.45;2.50;;;20.80;99.90;;;;;;6239122;23;20323;-84
2021/06/20 05:59:09;;;;;;;10.80;2.60;;;20.90;99.90;;;;;;6242456;23;20027;-83
2021/06/20 06:01:36;;;;;;;6.80;2.60;;;20.90;99.90;;;;;;6242881;23;20016;-83
2021/06/20 06:04:03;;;;;;;8.27;3.00;;;21.30;99.90;;;;;;6241275;23;20070;-83
2021/06/20 06:06:31;;;;;;;6.20;2.85;;;20.80;99.90;;;;;;6242681;23;20027;-84
2021/06/20 06:08:57;;;;;;;7.72;2.75;;;20.80;99.90;;;;;;6241111;23;20016;-84
2021/06/20 06:11:24;;;;;;;8.13;2.88;;;20.80;99.90;;;;;;6240904;23;20020;-83
2021/06/20 06:13:51;;;;;;;7.43;3.30;;;20.90;99.90;;;;;;6241741;23;20342;-82
2021/06/20 06:16:19;;;;;;;7.90;3.00;;;20.90;99.90;;;;;;6241842;23;20020;-83
2021/06/20 06:18:46;;;;;;;6.88;3.10;;;20.80;99.90;;;;;;6240927;23;20016;-82
2021/06/20 06:21:13;;;;;;;6.28;3.50;;;20.80;99.90;;;;;;6239770;23;20024;-83
2021/06/20 06:23:40;;;;;;;7.90;3.20;;;20.90;99.90;;;;;;6243036;23;20109;-83
2021/06/20 06:26:07;;;;;;;7.38;2.72;;;20.90;99.90;;;;;;6242733;23;20020;-83
2021/06/20 06:28:34;;;;;;;11.05;3.60;;;20.80;99.90;;;;;;6217263;23;20450;-83
2021/06/20 06:31:01;;;;;;;9.77;3.42;;;20.80;99.90;;;;;;6242782;23;20099;-83
2021/06/20 06:33:30;;;;;;;6.90;3.63;;;20.90;99.90;;;;;;6252858;23;20016;-83
2021/06/20 06:35:57;;;;;;;10.02;3.42;;;21.00;99.90;;;;;;6241825;23;20414;-83
2021/06/20 06:38:24;;;;;;;9.68;3.60;;;21.00;99.90;;;;;;6216978;23;20350;-82
2021/06/20 06:40:50;;;;;;;11.68;4.05;;;21.00;99.90;;;;;;6216021;23;20020;-86
2021/06/20 06:43:17;;;;;;;7.22;3.65;;;21.10;99.90;;;;;;6242783;22;20020;-84
2021/06/20 06:45:44;;;;;;;6.45;3.40;;;21.30;99.90;;;;;;6216698;23;20023;-83
2021/06/20 06:48:12;;;;;;;9.02;4.00;;;21.50;99.90;;;;;;6244315;23;20063;-83
2021/06/20 06:50:40;;;;;;;9.02;3.42;;;21.70;99.90;;;;;;6217260;23;20028;-83
2021/06/20 06:53:07;;;;;;;7.47;3.72;;;21.80;99.90;;;;;;6244432;23;20104;-82
2021/06/20 06:55:34;;;;;;;6.70;3.70;;;21.90;99.90;;;;;;6216820;23;20442;-83
2021/06/20 06:58:01;;;;;;;9.23;3.38;;;22.20;99.90;;;;;;6243095;23;20501;-84
2021/06/20 07:00:29;;;;;;;7.68;3.50;;;22.30;99.90;;;;;;6216654;23;20016;-83
2021/06/20 07:02:56;;;;;;;7.97;2.90;;;22.40;99.90;;;;;;6244998;23;20020;-84
2021/06/20 07:05:23;;;;;;;7.63;3.30;;;22.60;99.90;;;;;;6245557;23;20019;-82
2021/06/20 07:07:51;;;;;;;6.50;3.22;;;22.80;99.90;;;;;;6246488;23;20062;-84
2021/06/20 07:10:18;;;;;;;6.97;3.28;;;23.00;99.90;;;;;;6218391;23;20070;-83
2021/06/20 07:12:45;;;;;;;7.70;3.00;;;22.80;99.90;;;;;;6220662;23;20024;-81
2021/06/20 07:15:12;;;;;;;6.30;3.03;;;22.90;99.90;;;;;;6220187;23;20020;-84
2021/06/20 07:17:40;;;;;;;5.63;3.15;;;23.00;99.90;;;;;;6220276;23;20315;-82
2021/06/20 07:20:11;;;;;;;7.25;2.70;;;23.00;99.90;;;;;;6219685;23;20070;-82
2021/06/20 07:22:38;;;;;;;6.32;3.08;;;23.00;99.90;;;;;;6219869;23;20031;-82
2021/06/20 07:25:07;;;;;;;6.25;3.17;;;23.00;99.90;;;;;;6218648;23;20102;-82
2021/06/20 07:27:35;;;;;;;;;;;23.20;99.90;;;;;;6220096;23;20532;-83
2021/06/20 07:30:05;;;;;;;5.82;3.00;;;23.30;99.90;;;;;;6219010;23;19919;-84
2021/06/20 07:32:32;;;;;;;4.97;2.60;;;23.30;99.90;;;;;;6246281;23;20032;-84
2021/06/20 07:34:59;;;;;;;7.00;2.58;;;23.30;99.90;;;;;;6244615;23;20059;-84
2021/06/20 07:37:26;;;;;;;8.35;2.80;;;23.40;99.90;;;;;;6216065;23;20016;-82
2021/06/20 07:39:53;;;;;;;6.90;2.50;;;23.70;99.90;;;;;;6253999;23;20019;-85
2021/06/20 07:42:21;;;;;;;5.82;2.83;;;23.70;99.90;;;;;;6245755;23;20086;-84
2021/06/20 07:44:48;;;;;;;5.97;2.33;;;23.70;99.90;;;;;;6218829;22;20017;-86
2021/06/20 07:47:15;;;;;;;5.68;2.67;;;23.90;99.90;;;;;;6210152;23;20017;-87
2021/06/20 07:49:41;;;;;;;4.18;2.40;;;24.00;99.90;;;;;;6161277;23;20025;-87
2021/06/20 07:52:09;;;;;;;4.18;2.25;;;23.60;99.90;;;;;;6163515;23;20025;-88
2021/06/20 07:54:36;;;;;;;9.32;2.50;;;24.40;99.90;;;;;;6137606;23;20024;-86
2021/06/20 07:57:03;;;;;;;5.40;2.28;;;24.90;99.90;;;;;;6138421;23;20440;-87
2021/06/20 07:59:31;;;;;;;4.88;2.28;;;23.70;99.90;;;;;;6137154;23;20028;-86
2021/06/20 08:01:58;;;;;;;6.07;2.35;;;23.70;99.90;;;;;;6135092;23;20076;-87
2021/06/20 08:04:25;;;;;;;5.72;2.30;;;23.80;99.90;;;;;;6161681;23;20021;-87
2021/06/20 08:06:52;;;;;;;5.95;2.00;;;24.10;99.90;;;;;;6159877;23;20021;-87
2021/06/20 08:09:19;;;;;;;5.03;2.10;;;24.10;99.90;;;;;;6160482;23;20025;-87
2021/06/20 08:11:46;;;;;;;4.70;1.88;;;24.20;99.90;;;;;;6160380;23;20467;-87
2021/06/20 08:14:13;;;;;;;4.95;1.75;;;24.30;99.90;;;;;;6160493;23;20017;-85
2021/06/20 08:16:41;;;;;;;8.48;2.13;;;24.40;99.90;;;;;;6136279;23;20511;-86
2021/06/20 08:19:08;;;;;;;5.95;2.13;;;24.30;99.90;;;;;;6161637;23;20076;-86
2021/06/20 08:21:35;;;;;;;3.90;1.75;;;24.30;99.90;;;;;;6160503;23;20021;-86
2021/06/20 08:24:02;;;;;;;4.38;2.28;;;24.20;99.90;;;;;;6161790;23;20103;-87
2021/06/20 08:26:29;;;;;;;4.70;1.83;;;24.20;99.90;;;;;;6160586;23;20039;-86
2021/06/20 08:28:56;;;;;;;6.25;2.00;;;24.20;99.90;;;;;;6161385;23;20016;-86
2021/06/20 08:31:22;;;;;;;4.55;2.10;;;24.30;99.90;;;;;;6161163;23;20025;-86
2021/06/20 08:33:51;;;;;;;6.60;1.88;;;24.10;99.90;;;;;;6160680;23;20025;-87
2021/06/20 08:36:18;;;;;;;5.38;2.08;;;24.00;99.90;;;;;;6161820;23;20021;-86
2021/06/20 08:38:44;;;;;;;3.20;1.80;;;23.90;99.90;;;;;;6161641;23;20017;-87
2021/06/20 08:41:14;;;;;;;5.30;2.13;;;23.80;99.90;;;;;;6171236;23;20024;-86
2021/06/20 08:43:41;;;;;;;3.92;2.00;;;23.80;99.90;;;;;;6134711;23;20530;-86
2021/06/20 08:46:09;;;;;;;4.22;2.00;;;23.60;99.90;;;;;;6160073;23;20020;-86
2021/06/20 08:48:37;;;;;;;5.18;2.25;;;23.50;99.90;;;;;;6159891;23;20092;-86
2021/06/20 08:51:05;;;;;;;4.10;2.35;;;23.30;99.90;;;;;;6161376;23;20064;-87
2021/06/20 08:53:32;;;;;;;4.00;2.35;;;23.00;99.90;;;;;;6159944;23;20017;-87
2021/06/20 08:55:59;;;;;;;3.65;2.22;;;22.90;99.90;;;;;;6160515;23;20083;-86
2021/06/20 08:58:27;;;;;;;3.50;2.05;;;22.90;99.90;;;;;;6160736;23;20013;-86
2021/06/20 09:00:55;;;;;;;6.13;2.42;;;22.90;99.90;;;;;;6159869;23;20021;-86
2021/06/20 09:03:22;;;;;;;5.40;2.33;;;23.10;99.90;;;;;;6160435;23;20032;-86
2021/06/20 09:05:57;;;;;;;4.45;2.40;;;23.40;99.90;;;;;;6159345;23;20083;-87
2021/06/20 09:08:27;;;;;;;7.50;2.70;;;23.70;99.90;;;;;;6159419;23;20017;-87
2021/06/20 09:10:54;;;;;;;4.47;2.53;;;24.70;99.90;;;;;;6159460;23;20440;-87
2021/06/20 09:13:22;;;;;;;4.97;2.45;;;23.90;99.90;;;;;;6160476;23;20029;-87
2021/06/20 09:15:59;;;;;;;6.68;2.10;;;23.90;99.90;;;;;;6186374;23;20017;-87
2021/06/20 09:18:26;;;;;;;7.10;2.55;;;24.10;99.90;;;;;;6160278;23;20016;-88
2021/06/20 09:20:53;;;;;;;4.20;2.30;;;24.20;99.90;;;;;;6158933;23;20348;-86
2021/06/20 09:23:20;;;;;;;3.53;2.13;;;24.20;99.90;;;;;;6132423;23;20020;-87
2021/06/20 09:25:56;;;;;;;7.68;2.40;;;24.00;99.90;;;;;;6132382;23;20068;-87
2021/06/20 09:28:30;;;;;;;4.82;2.40;;;24.10;99.90;;;;;;6158761;23;20435;-86
2021/06/20 09:30:57;;;;;;;4.13;2.35;;;24.30;99.90;;;;;;6159351;23;20024;-86
2021/06/20 09:33:29;;;;;;;5.78;2.70;;;24.40;99.90;;;;;;6161791;23;20021;-88
2021/06/20 09:35:57;;;;;;;5.18;2.88;;;24.50;99.90;;;;;;6161462;23;20017;-88
2021/06/20 09:38:25;;;;;;;3.80;2.08;;;26.00;99.90;;;;;;6172157;23;20491;-87
2021/06/20 09:41:01;;;;;;;4.40;2.30;;;26.30;99.90;;;;;;6161350;23;20029;-87
2021/06/20 09:43:28;;;;;;;3.35;2.20;;;24.80;99.90;;;;;;6160808;23;20021;-87
2021/06/20 09:45:55;;;;;;;4.18;2.40;;;24.90;99.90;;;;;;6185084;23;20021;-86
2021/06/20 09:48:25;;;;;;;4.65;2.13;;;25.70;99.90;;;;;;6158808;23;20406;-86
2021/06/20 09:50:53;;;;;;;5.43;1.90;;;25.30;99.90;;;;;;6160184;23;20471;-86
2021/06/20 09:53:31;;;;;;;4.10;2.10;;;24.70;99.90;;;;;;6158651;23;20017;-86
2021/06/20 09:56:20;;;;;;;4.63;2.10;;;24.80;99.90;;;;;;6160079;23;20017;-85
2021/06/20 09:58:56;;;;;;;6.93;2.35;;;25.00;99.90;;;;;;6159709;23;20064;-86
2021/06/20 10:01:24;;;;;;;2.92;1.70;;;25.90;99.90;;;;;;6135280;23;20029;-87
2021/06/20 10:03:51;;;;;;;4.25;2.00;;;25.30;99.90;;;;;;6158087;23;20729;-88
2021/06/20 10:06:19;;;;;;;4.20;2.10;;;25.40;99.90;;;;;;6157228;23;20498;-87
2021/06/20 10:08:46;;;;;;;3.17;2.08;;;25.30;99.90;;;;;;6158662;23;20438;-86
2021/06/20 10:11:15;;;;;;;4.10;1.92;;;25.30;99.90;;;;;;6159657;23;20079;-86
2021/06/20 10:13:43;;;;;;;3.75;1.98;;;25.40;99.90;;;;;;6177097;23;20033;-86
2021/06/20 10:16:18;;;;;;;3.80;2.08;;;25.50;99.90;;;;;;6208873;23;19997;-86
2021/06/20 10:18:50;;;;;;;5.30;1.90;;;25.50;99.90;;;;;;6145050;23;20270;-86
2021/06/20 10:21:31;;;;;;;3.20;2.00;;;25.50;99.90;;;;;;6159155;23;20399;-86
2021/06/20 10:24:06;;;;;;;2.97;1.83;;;25.40;99.90;;;;;;6158012;23;20075;-86
2021/06/20 10:26:35;;;;;;;4.78;1.88;;;25.30;99.90;;;;;;6156973;23;20075;-87
2021/06/20 10:29:15;;;;;;;4.38;1.83;;;25.40;99.90;;;;;;6157732;23;20028;-86
2021/06/20 10:31:42;;;;;;;2.75;1.60;;;25.50;99.90;;;;;;6156916;23;20025;-86
2021/06/20 10:34:17;;;;;;;4.25;1.58;;;25.50;99.90;;;;;;6135355;23;20028;-87
2021/06/20 10:36:45;;;;;;;3.33;1.80;;;25.10;99.90;;;;;;6158707;23;20456;-86
2021/06/20 10:39:12;;;;;;;3.90;1.65;;;25.00;99.90;;;;;;6134890;23;20080;-86
2021/06/20 10:41:40;;;;;;;2.92;1.58;;;25.10;99.90;;;;;;6134289;23;20412;-85
2021/06/20 10:44:07;;;;;;;4.53;1.80;;;25.20;99.90;;;;;;6158642;23;20020;-84
2021/06/20 10:46:36;;;;;;;3.88;1.50;;;25.30;99.90;;;;;;6133473;23;20395;-86
2021/06/20 10:49:14;;;;;;;3.85;1.73;;;25.20;99.50;;;;;;6184007;23;20021;-88
2021/06/20 10:51:41;;;;;;;6.05;1.80;;;25.40;99.90;;;;;;6159557;23;20032;-87
2021/06/20 10:54:19;;;;;;;2.75;1.63;;;25.20;99.90;;;;;;6160091;23;20024;-85
2021/06/20 10:56:57;;;;;;;3.28;1.42;;;26.40;99.90;;;;;;6183003;23;20036;-86
2021/06/20 10:59:24;;;;;;;3.42;1.30;;;25.50;99.70;;;;;;6160655;23;20483;-85
2021/06/20 11:01:51;;;;;;;2.40;1.33;;;25.30;99.10;;;;;;6160394;23;20017;-86
2021/06/20 11:04:18;;;;;;;4.75;1.50;;;25.20;98.40;;;;;;6186456;23;20025;-86
2021/06/20 11:06:52;;;;;;;3.22;1.60;;;25.20;99.70;;;;;;6161105;23;20017;-87
2021/06/20 11:09:21;;;;;;;3.78;1.60;;;25.20;99.70;;;;;;6185628;23;20436;-86
2021/06/20 11:11:50;;;;;;;5.90;1.48;;;25.40;99.90;;;;;;6160301;23;20036;-87
2021/06/20 11:14:19;;;;;;;3.85;1.45;;;26.10;99.90;;;;;;6184634;23;20013;-86
2021/06/20 11:16:48;;;;;;;2.83;1.33;;;25.50;99.90;;;;;;6183896;23;20013;-86
2021/06/20 11:19:16;;;;;;;2.33;1.25;;;25.50;99.90;;;;;;6183896;23;20017;-86
2021/06/20 11:21:48;;;;;;;4.38;1.30;;;25.60;99.10;;;;;;6184809;23;20031;-85
2021/06/20 11:24:17;;;;;;;1.83;1.05;;;25.60;98.50;;;;;;6184548;23;20341;-85
2021/06/20 11:26:55;;;;;;;4.47;1.15;;;25.70;98.50;;;;;;6184072;23;20021;-87
2021/06/20 11:29:24;;;;;;;2.05;1.23;;;26.60;97.80;;;;;;6182166;23;20080;-85
2021/06/20 11:31:52;;;;;;;2.05;1.25;;;25.70;98.60;;;;;;6154899;23;20072;-86
2021/06/20 11:34:20;;;;;;;2.35;1.25;;;25.70;99.30;;;;;;6184549;23;20376;-86
2021/06/20 11:36:47;;;;;;;1.80;1.13;;;27.70;97.90;;;;;;6184745;23;20021;-87
2021/06/20 11:39:16;;;;;;;2.47;1.20;;;25.90;98.20;;;;;;6184092;23;20020;-86
2021/06/20 11:41:45;;;;;;;1.83;0.80;;;26.40;97.60;;;;;;6183926;23;20025;-86
2021/06/20 11:44:13;;;;;;;1.95;1.10;;;26.50;97.60;;;;;;6158273;23;20017;-86
2021/06/20 11:46:42;;;;;;;3.03;1.30;;;27.40;97.10;;;;;;6132769;23;20071;-86
2021/06/20 11:49:12;;;;;;;8.35;1.38;;;26.90;96.90;;;;;;6158315;23;20017;-86
2021/06/20 11:51:40;;;;;;;;;;;27.10;98.00;;;;;;6136164;23;20071;-85
2021/06/20 11:54:20;;;;;;;1.80;1.00;;;27.70;97.40;;;;;;6160337;23;19974;-86
2021/06/20 11:56:52;;;;;;;2.22;0.95;;;27.40;96.90;;;;;;6185300;23;20440;-86
2021/06/20 11:59:31;;;;;;;2.97;1.15;;;27.50;97.20;;;;;;6184279;23;20017;-86
2021/06/20 12:02:00;;;;;;;2.35;1.23;;;27.40;97.70;;;;;;6184130;23;20084;-85
2021/06/20 12:04:28;;;;;;;;;;;27.40;97.60;;;;;;6185138;23;20017;-84
2021/06/20 12:06:55;;;;;;;2.70;1.15;;;27.30;96.10;;;;;;6185587;23;19920;-87
2021/06/20 12:09:23;;;;;;;3.47;1.33;;;28.20;95.80;;;;;;6158173;23;20372;-85
2021/06/20 12:11:59;;;;;;;3.03;1.30;;;26.90;96.30;;;;;;6183013;23;20452;-85
2021/06/20 12:14:28;;;;;;;1.90;1.13;;;26.60;95.10;;;;;;6183033;23;20420;-85
2021/06/20 12:16:55;;;;;;;2.58;1.30;;;26.50;96.70;;;;;;6183824;23;20021;-87
2021/06/20 12:19:26;;;;;;;1.33;1.02;;;26.30;97.60;;;;;;6183808;23;20017;-87
2021/06/20 12:22:09;;;;;;;2.75;1.20;;;26.10;97.40;;;;;;6183749;23;20100;-85
2021/06/20 12:24:42;;;;;;;2.22;0.98;;;26.10;96.00;;;;;;6186266;23;20459;-86
2021/06/20 12:27:09;;;;;;;2.33;1.17;;;25.90;95.60;;;;;;6170826;22;20025;-82
2021/06/20 12:29:38;;;;;;;3.13;1.23;;;26.10;96.80;;;;;;6211970;23;20013;-83
2021/06/20 12:32:12;;;;;;;4.03;1.20;;;26.20;97.40;;;;;;6211934;23;20025;-82
2021/06/20 12:34:42;;;;;;;2.47;1.40;;;26.20;97.20;;;;;;6213976;23;20016;-82
2021/06/20 12:37:10;;;;;;;2.38;1.10;;;26.40;97.00;;;;;;6212216;23;20442;-82
2021/06/20 12:39:41;;;;;;;3.03;1.27;;;26.40;97.20;;;;;;6214454;23;20013;-83
2021/06/20 12:42:09;;;;;;;2.10;1.20;;;26.60;95.50;;;;;;6232624;22;20016;-83
2021/06/20 12:44:38;;;;;;;2.40;1.02;;;26.60;97.00;;;;;;6241668;23;20327;-83
2021/06/20 12:47:05;;;;;;;2.88;1.20;;;26.70;96.60;;;;;;6243500;22;20016;-82
2021/06/20 12:49:31;;;;;;;3.38;1.20;;;26.70;96.20;;;;;;6240543;23;20024;-82
2021/06/20 12:52:03;;;;;;;2.92;1.05;;;26.60;96.50;;;;;;6254078;22;20450;-83
2021/06/20 12:54:38;;;;;;;3.83;1.05;;;26.70;97.40;;;;;;6240025;23;20020;-83
2021/06/20 12:57:07;;;;;;;1.73;0.90;;;26.90;97.60;;;;;;6252903;22;20016;-82